Terminal Aerodrome Forecast
Issued by NWS Los Angeles, CA

Current Version | Previous Version | Text Only | Print | Product List | Glossary On
Versions: 1 2 3 4 5 6 7 8 9 10 11 12 13
000
FTUS46 KLOX 261700
TAFSMX
TAF
KSMX 261736Z 2618/2718 00000KT P6SM BKN130
     FM262100 24006KT P6SM OVC120
     FM270100 14006KT P6SM VCSH OVC100
     FM270300 VRB03KT P6SM VCSH OVC100=

USA.gov is the U.S. government's official web portal to all federal, state and local government web resources and services.